createdAt,value
2018-12-01T00:00:36.436Z,97.31
2018-12-01T00:01:28.657Z,96.46
2018-12-01T00:02:21.611Z,97.22
2018-12-01T00:03:14.040Z,97.31
2018-12-01T00:04:06.157Z,96.46
2018-12-01T00:04:59.209Z,97.31
2018-12-01T00:05:52.627Z,97.88
2018-12-01T00:06:45.150Z,97.88
2018-12-01T00:07:37.402Z,97.6
2018-12-01T00:08:29.655Z,97.5
2018-12-01T00:09:21.883Z,97.5
2018-12-01T00:10:15.127Z,97.5
2018-12-01T00:11:07.338Z,97.79
2018-12-01T00:11:58.991Z,97.5
2018-12-01T00:12:51.040Z,98.27
2018-12-01T00:13:43.614Z,98.36
2018-12-01T00:14:36.439Z,97.98
2018-12-01T00:15:29.140Z,97.41
2018-12-01T00:16:21.251Z,98.46
2018-12-01T00:17:13.427Z,98.93
2018-12-01T00:18:05.856Z,98.27
2018-12-01T00:18:58.118Z,97.6
2018-12-01T00:19:50.142Z,98.08
2018-12-01T00:20:42.031Z,97.6
2018-12-01T00:21:35.541Z,97.5
2018-12-01T00:22:28.158Z,97.41
2018-12-01T00:25:00.929Z,98.27
2018-12-01T00:25:53.954Z,98.08
2018-12-01T00:26:46.977Z,98.36
2018-12-01T00:27:39.164Z,98.46
2018-12-01T00:28:31.244Z,98.27
2018-12-01T00:29:23.420Z,98.17
2018-12-01T00:30:16.292Z,98.36
2018-12-01T00:31:08.394Z,97.88
2018-12-01T00:32:01.156Z,97.88
2018-12-01T00:32:53.819Z,97.98
2018-12-01T00:33:45.828Z,98.5
2018-12-01T00:34:38.391Z,98.79
2018-12-01T00:35:30.638Z,98.79
2018-12-01T00:36:22.648Z,98.79
2018-12-01T00:37:15.019Z,99.45
2018-12-01T00:38:06.951Z,99.55
2018-12-01T00:38:59.191Z,99.74
2018-12-01T00:39:52.057Z,99.99
2018-12-01T00:40:44.402Z,99.93
2018-12-01T00:41:36.306Z,99.64
2018-12-01T00:42:28.375Z,99.93
2018-12-01T00:43:20.409Z,99.74
2018-12-01T00:44:12.753Z,99.74
2018-12-01T00:45:04.846Z,99.99
2018-12-01T00:45:57.466Z,99.99
2018-12-01T00:46:50.027Z,99.99
2018-12-01T00:47:42.262Z,99.99
2018-12-01T00:48:35.260Z,99.99
2018-12-01T00:49:27.567Z,99.74
2018-12-01T00:50:19.528Z,99.84
2018-12-01T00:51:09.620Z,99.99
2018-12-01T00:51:49.799Z,99.99
2018-12-01T00:52:30.197Z,99.99
2018-12-01T00:53:10.553Z,99.84
2018-12-01T00:53:50.872Z,99.45
2018-12-01T00:54:31.327Z,98.69
2018-12-01T00:55:11.698Z,98.6
2018-12-01T00:55:52.113Z,98.12
2018-12-01T00:56:32.488Z,97.74
2018-12-01T00:57:12.889Z,98.03
2018-12-01T00:57:53.221Z,98.31
2018-12-01T00:58:33.563Z,98.22
2018-12-01T00:59:14.066Z,98.03
2018-12-01T00:59:54.485Z,98.22
2018-12-01T01:00:34.894Z,98.22
2018-12-01T01:01:15.264Z,97.74
2018-12-01T01:01:55.729Z,97.36
2018-12-01T01:02:36.115Z,97.64
2018-12-01T01:03:16.549Z,98.03
2018-12-01T01:03:56.963Z,98.22
2018-12-01T01:04:37.301Z,98.31
2018-12-01T01:05:17.684Z,98.6
2018-12-01T01:05:58.057Z,98.79
2018-12-01T01:06:38.524Z,98.6
2018-12-01T01:07:18.862Z,99.55
2018-12-01T01:07:59.279Z,99.88
2018-12-01T01:08:39.678Z,99.99
2018-12-01T01:09:20.107Z,99.99
2018-12-01T01:10:00.543Z,99.5
2018-12-01T01:10:40.927Z,99.99
2018-12-01T01:11:21.291Z,99.69
2018-12-01T01:12:01.694Z,99.02
2018-12-01T01:12:42.126Z,99.59
2018-12-01T01:13:22.435Z,99.99
2018-12-01T01:14:02.870Z,99.99
2018-12-01T01:14:43.319Z,99.99
2018-12-01T01:15:23.709Z,99.99
2018-12-01T01:16:04.080Z,99.99
2018-12-01T01:16:44.498Z,99.99
2018-12-01T01:17:24.862Z,99.99
2018-12-01T01:18:05.277Z,99.99
2018-12-01T01:18:45.591Z,99.99
2018-12-01T01:19:25.990Z,99.99
2018-12-01T01:20:06.455Z,99.99
2018-12-01T01:20:46.796Z,99.99
2018-12-01T01:21:27.180Z,99.99
2018-12-01T01:22:07.560Z,99.99
2018-12-01T01:22:47.978Z,99.99
2018-12-01T01:23:28.343Z,99.99
2018-12-01T01:24:08.752Z,99.99
2018-12-01T01:24:49.132Z,99.99
2018-12-01T01:25:29.511Z,99.99
2018-12-01T01:26:09.973Z,99.99
2018-12-01T01:26:50.340Z,99.99
2018-12-01T01:27:30.703Z,99.99
2018-12-01T01:28:11.101Z,99.99
2018-12-01T01:28:51.485Z,99.99
2018-12-01T01:29:31.784Z,99.99
2018-12-01T01:30:12.265Z,99.99
2018-12-01T01:30:52.562Z,99.99
2018-12-01T01:31:33.068Z,99.99
2018-12-01T01:32:13.491Z,99.99
2018-12-01T01:32:53.857Z,99.99
2018-12-01T01:33:34.231Z,99.99
2018-12-01T01:34:14.710Z,99.99
2018-12-01T01:34:55.081Z,99.99
2018-12-01T01:35:35.444Z,99.99
2018-12-01T01:36:15.885Z,99.99
2018-12-01T01:36:56.379Z,99.99
2018-12-01T01:37:36.627Z,99.99
2018-12-01T01:38:17.051Z,99.99
2018-12-01T01:38:57.503Z,99.99
2018-12-01T01:39:37.953Z,99.99
2018-12-01T01:40:18.230Z,99.99
2018-12-01T01:40:58.672Z,99.99
2018-12-01T01:41:39.033Z,99.99
2018-12-01T01:42:19.399Z,99.99
2018-12-01T01:42:59.768Z,99.99
2018-12-01T01:43:40.190Z,99.99
2018-12-01T01:44:20.573Z,99.99
2018-12-01T01:45:00.963Z,99.99
2018-12-01T01:45:41.338Z,99.99
2018-12-01T01:46:21.736Z,99.99
2018-12-01T01:47:02.177Z,99.99
2018-12-01T01:47:42.629Z,99.99
2018-12-01T01:48:23.203Z,99.99
2018-12-01T01:49:03.617Z,99.99
2018-12-01T01:49:44.070Z,99.99
2018-12-01T01:50:24.460Z,99.99
2018-12-01T01:51:04.856Z,99.99
2018-12-01T01:51:45.174Z,99.99
2018-12-01T01:52:25.562Z,99.99
2018-12-01T01:53:06.041Z,99.99
2018-12-01T01:53:46.405Z,99.99
2018-12-01T01:54:26.721Z,99.99
2018-12-01T01:55:07.150Z,99.99
2018-12-01T01:55:47.512Z,99.99
2018-12-01T01:56:27.962Z,99.99
2018-12-01T01:57:08.264Z,99.99
2018-12-01T01:57:48.682Z,99.99
2018-12-01T01:58:29.054Z,99.99
2018-12-01T01:59:09.457Z,99.99
2018-12-01T01:59:49.854Z,99.99
2018-12-01T02:00:30.204Z,99.99
2018-12-01T02:01:10.635Z,99.99
2018-12-01T02:01:51.045Z,99.99
2018-12-01T02:02:31.373Z,99.99
2018-12-01T02:03:11.784Z,99.99
2018-12-01T02:03:52.184Z,99.99
2018-12-01T02:04:32.597Z,99.99
2018-12-01T02:05:13.046Z,99.99
2018-12-01T02:05:53.342Z,99.99
2018-12-01T02:06:33.827Z,99.99
2018-12-01T02:07:14.152Z,99.99
2018-12-01T02:07:54.516Z,99.99
2018-12-01T02:08:34.965Z,99.99
2018-12-01T02:09:15.418Z,99.99
2018-12-01T02:09:55.736Z,99.99
2018-12-01T02:10:36.217Z,99.99
2018-12-01T02:11:16.576Z,99.99
2018-12-01T02:11:56.922Z,99.99
2018-12-01T02:12:37.337Z,99.99
2018-12-01T02:13:17.723Z,99.99
2018-12-01T02:13:58.105Z,99.99
2018-12-01T02:14:38.505Z,99.99
2018-12-01T02:15:18.905Z,99.99
2018-12-01T02:15:59.256Z,99.99
2018-12-01T02:16:39.708Z,99.99
2018-12-01T02:17:20.160Z,99.99
2018-12-01T02:18:00.460Z,99.99
2018-12-01T02:18:40.832Z,99.99
2018-12-01T02:19:21.188Z,99.99
2018-12-01T02:20:01.612Z,99.99
2018-12-01T02:20:42.001Z,99.99
2018-12-01T02:21:22.387Z,99.99
2018-12-01T02:22:02.761Z,99.99
2018-12-01T02:22:43.185Z,99.99
2018-12-01T02:23:23.572Z,99.99
2018-12-01T02:24:04.029Z,99.99
2018-12-01T02:24:44.373Z,99.99
2018-12-01T02:25:24.768Z,99.99
2018-12-01T02:26:05.124Z,99.99
2018-12-01T02:26:45.612Z,99.99
2018-12-01T02:27:26.042Z,99.99
2018-12-01T02:28:06.418Z,99.99
2018-12-01T02:28:46.785Z,99.99
2018-12-01T02:29:27.268Z,99.99
2018-12-01T02:30:07.551Z,99.99
2018-12-01T02:30:47.992Z,99.99
2018-12-01T02:31:28.396Z,99.99
2018-12-01T02:32:08.805Z,99.99
2018-12-01T02:32:49.123Z,99.99
2018-12-01T02:33:29.568Z,99.99
2018-12-01T02:34:09.968Z,99.99
2018-12-01T02:34:50.361Z,99.99
2018-12-01T02:35:30.687Z,99.99
2018-12-01T02:36:11.139Z,99.99
2018-12-01T02:36:51.533Z,99.99
2018-12-01T02:37:31.949Z,99.99
2018-12-01T02:38:12.421Z,99.99
2018-12-01T02:38:52.753Z,99.88
2018-12-01T02:39:33.165Z,99.78
2018-12-01T02:40:13.577Z,99.88
2018-12-01T02:40:53.890Z,99.5
2018-12-01T02:41:34.243Z,99.99
2018-12-01T02:42:14.717Z,99.99
2018-12-01T02:42:55.059Z,99.99
2018-12-01T02:43:35.490Z,99.69
2018-12-01T02:44:15.888Z,99.99
2018-12-01T02:44:56.287Z,99.97
2018-12-01T02:45:36.697Z,99.59
2018-12-01T02:46:17.163Z,99.78
2018-12-01T02:46:57.578Z,99.21
2018-12-01T02:47:37.955Z,99.69
2018-12-01T02:48:18.349Z,99.69
2018-12-01T02:48:58.707Z,99.99
2018-12-01T02:49:39.086Z,99.99
2018-12-01T02:50:19.478Z,99.99
2018-12-01T02:50:59.898Z,99.99
2018-12-01T02:51:40.352Z,99.88
2018-12-01T02:52:20.699Z,99.97
2018-12-01T02:53:01.122Z,99.99
2018-12-01T02:53:41.521Z,99.88
2018-12-01T02:54:21.844Z,99.69
2018-12-01T02:55:02.234Z,99.59
2018-12-01T02:55:42.632Z,99.5
2018-12-01T02:56:23.092Z,99.88
2018-12-01T02:57:03.405Z,99.99
2018-12-01T02:57:43.815Z,99.97
2018-12-01T02:58:24.141Z,99.97
2018-12-01T02:59:04.623Z,99.88
2018-12-01T02:59:45.037Z,99.3
2018-12-01T03:00:25.451Z,99.88
2018-12-01T03:01:05.805Z,99.69
2018-12-01T03:01:46.308Z,99.88
2018-12-01T03:02:26.639Z,99.97
2018-12-01T03:03:07.044Z,99.88
2018-12-01T03:03:47.406Z,99.4
2018-12-01T03:04:27.821Z,99.4
2018-12-01T03:05:08.253Z,99.3
2018-12-01T03:05:48.612Z,98.55
2018-12-01T03:06:28.994Z,98.64
2018-12-01T03:07:09.329Z,99.97
2018-12-01T03:07:49.830Z,99.99
2018-12-01T03:08:30.231Z,99.5
2018-12-01T03:09:10.579Z,99.88
2018-12-01T03:09:50.996Z,99.5
2018-12-01T03:10:31.433Z,99.59
2018-12-01T03:11:11.835Z,99.59
2018-12-01T03:11:52.210Z,99.21
2018-12-01T03:12:32.600Z,99.21
2018-12-01T03:13:12.979Z,99.5
2018-12-01T03:13:53.390Z,99.11
2018-12-01T03:14:33.792Z,99.78
2018-12-01T03:15:14.236Z,99.97
2018-12-01T03:15:54.608Z,99.99
2018-12-01T03:16:34.960Z,99.88
2018-12-01T03:17:15.416Z,99.44
2018-12-01T03:17:55.799Z,99.4
2018-12-01T03:18:36.709Z,99.83
2018-12-01T03:19:18.531Z,99.99
2018-12-01T03:19:59.419Z,99.88
2018-12-01T03:20:39.834Z,99.83
2018-12-01T03:21:20.689Z,99.54
2018-12-01T03:22:01.075Z,99.92
2018-12-01T03:22:41.576Z,99.99
2018-12-01T03:23:22.031Z,99.99
2018-12-01T03:24:02.391Z,99.99
2018-12-01T03:24:42.824Z,99.99
2018-12-01T03:25:23.135Z,99.99
2018-12-01T03:26:03.541Z,99.54
2018-12-01T03:26:43.961Z,99.99
2018-12-01T03:27:24.412Z,99.99
2018-12-01T03:28:04.811Z,99.99
2018-12-01T03:28:45.188Z,99.99
2018-12-01T03:29:25.552Z,99.92
2018-12-01T03:30:05.990Z,99.83
2018-12-01T03:30:46.286Z,99.99
2018-12-01T03:31:26.713Z,99.99
2018-12-01T03:32:07.185Z,99.99
2018-12-01T03:32:47.550Z,99.99
2018-12-01T03:33:27.912Z,99.99
2018-12-01T03:34:08.363Z,99.99
2018-12-01T03:34:48.753Z,99.99
2018-12-01T03:35:29.148Z,99.83
2018-12-01T03:36:09.519Z,99.99
2018-12-01T03:36:49.936Z,99.99
2018-12-01T03:37:30.348Z,99.99
2018-12-01T03:38:10.784Z,99.99
2018-12-01T03:38:51.190Z,99.99
2018-12-01T03:39:31.609Z,99.99
2018-12-01T03:40:11.960Z,99.99
2018-12-01T03:40:52.353Z,99.99
2018-12-01T03:41:32.752Z,99.99
2018-12-01T03:42:13.127Z,99.99
2018-12-01T03:42:53.546Z,99.99
2018-12-01T03:43:33.867Z,99.99
2018-12-01T03:44:14.339Z,99.99
2018-12-01T03:44:54.774Z,99.99
2018-12-01T03:45:35.118Z,99.99
2018-12-01T03:46:16.403Z,99.99
2018-12-01T03:48:15.578Z,99.99
2018-12-01T03:48:55.861Z,99.99
2018-12-01T03:49:36.287Z,99.99
2018-12-01T03:50:16.763Z,99.99
2018-12-01T03:50:57.055Z,99.99
2018-12-01T03:51:37.643Z,99.99
2018-12-01T03:52:19.173Z,99.99
2018-12-01T03:52:59.470Z,99.99
2018-12-01T03:53:39.946Z,99.99
2018-12-01T03:54:20.320Z,99.99
2018-12-01T03:55:01.421Z,99.99
2018-12-01T03:55:41.889Z,99.99
2018-12-01T03:56:22.309Z,99.92
2018-12-01T03:57:02.512Z,99.99
2018-12-01T03:57:43.677Z,99.99
2018-12-01T03:58:24.111Z,99.99
2018-12-01T03:59:04.533Z,99.99
2018-12-01T03:59:44.928Z,99.99
2018-12-01T04:00:25.368Z,99.99
2018-12-01T04:01:05.885Z,99.99
2018-12-01T04:01:46.291Z,99.99
2018-12-01T04:02:26.546Z,99.99
2018-12-01T04:03:07.073Z,99.99
2018-12-01T04:03:47.380Z,99.99
2018-12-01T04:04:27.905Z,99.99
2018-12-01T04:05:08.406Z,99.99
2018-12-01T04:05:48.705Z,99.99
2018-12-01T04:06:29.346Z,99.99
2018-12-01T04:07:10.405Z,99.99
2018-12-01T04:07:50.819Z,99.99
2018-12-01T04:08:31.686Z,99.99
2018-12-01T04:09:12.365Z,99.99
2018-12-01T04:09:52.916Z,99.99
2018-12-01T04:10:33.291Z,99.99
2018-12-01T04:11:13.739Z,99.99
2018-12-01T04:11:54.190Z,99.99
2018-12-01T04:12:34.595Z,99.99
2018-12-01T04:13:14.977Z,99.99
2018-12-01T04:13:55.460Z,99.99
2018-12-01T04:14:35.787Z,99.99
2018-12-01T04:15:16.182Z,99.99
2018-12-01T04:15:56.630Z,99.99
2018-12-01T04:16:36.947Z,99.99
2018-12-01T04:17:17.337Z,99.99
2018-12-01T04:19:16.928Z,99.99
2018-12-01T04:20:08.927Z,99.99
2018-12-01T04:21:01.349Z,99.99
2018-12-01T04:21:53.069Z,99.99
2018-12-01T04:22:45.120Z,99.99
2018-12-01T04:23:37.338Z,99.99
2018-12-01T04:24:29.584Z,99.99
2018-12-01T04:25:22.141Z,99.99
2018-12-01T04:26:14.255Z,99.99
2018-12-01T04:27:06.484Z,99.92
2018-12-01T05:06:39.073Z,99.99
2018-12-01T05:07:31.282Z,99.99
2018-12-01T05:08:23.655Z,99.99
2018-12-01T05:09:16.253Z,99.99
2018-12-01T05:10:08.739Z,99.99
2018-12-01T05:11:01.491Z,99.99
2018-12-01T05:11:53.866Z,99.99
2018-12-01T05:12:46.023Z,99.99
2018-12-01T05:13:38.882Z,99.99
2018-12-01T05:14:31.381Z,99.99
2018-12-01T05:15:23.808Z,99.99
2018-12-01T05:16:15.907Z,99.99
2018-12-01T05:17:08.759Z,99.99
2018-12-01T05:18:01.359Z,99.99
2018-12-01T05:18:53.868Z,99.99
2018-12-01T05:19:46.723Z,99.99
2018-12-01T05:20:38.992Z,99.99
2018-12-01T05:21:31.251Z,99.99
2018-12-01T05:22:23.582Z,99.99
2018-12-01T05:23:15.778Z,99.99
2018-12-01T05:24:08.266Z,99.99
2018-12-01T05:25:00.779Z,99.99
2018-12-01T05:25:53.269Z,99.99
2018-12-01T05:26:45.952Z,99.99
2018-12-01T05:27:38.330Z,99.99
2018-12-01T05:28:30.546Z,99.99
2018-12-01T05:29:23.441Z,99.99
2018-12-01T05:30:15.851Z,99.99
2018-12-01T05:31:08.305Z,99.99
2018-12-01T05:32:00.694Z,99.99
2018-12-01T05:32:53.343Z,99.99
2018-12-01T05:33:45.724Z,99.99
2018-12-01T05:34:38.485Z,99.99
2018-12-01T05:35:30.958Z,99.99
2018-12-01T05:36:23.282Z,99.99
2018-12-01T05:37:15.852Z,99.99
2018-12-01T05:38:08.327Z,99.99
2018-12-01T05:39:00.192Z,99.99
2018-12-01T05:39:52.546Z,99.99
2018-12-01T05:40:44.923Z,99.99
2018-12-01T05:41:37.063Z,99.99
2018-12-01T05:42:29.354Z,99.99
2018-12-01T05:43:21.843Z,99.99
2018-12-01T05:44:14.766Z,99.99
2018-12-01T05:45:06.804Z,99.99
2018-12-01T05:45:59.431Z,99.99
2018-12-01T05:46:51.706Z,99.99
2018-12-01T05:47:44.097Z,99.99
2018-12-01T05:48:36.267Z,99.99
2018-12-01T05:49:29.758Z,99.99
2018-12-01T05:50:22.337Z,99.99
2018-12-01T05:51:14.835Z,99.99
2018-12-01T05:52:06.858Z,99.99
2018-12-01T05:52:59.207Z,99.99
2018-12-01T05:53:51.341Z,99.99
2018-12-01T05:54:43.264Z,99.99
2018-12-01T05:55:35.932Z,99.99
2018-12-01T05:56:27.978Z,99.99
2018-12-01T05:57:20.910Z,99.99
2018-12-01T05:58:12.735Z,99.99
2018-12-01T05:59:05.255Z,99.99
2018-12-01T05:59:58.059Z,99.99
2018-12-01T06:00:50.767Z,99.99
2018-12-01T06:01:42.837Z,99.99
2018-12-01T06:02:32.335Z,99.99
2018-12-01T06:03:12.391Z,99.99
2018-12-01T06:03:52.696Z,99.99
2018-12-01T06:04:33.166Z,99.99
2018-12-01T06:05:13.571Z,99.99
2018-12-01T06:05:53.953Z,99.99
2018-12-01T06:06:34.387Z,99.99
2018-12-01T06:07:14.727Z,99.99
2018-12-01T06:07:55.140Z,99.99
2018-12-01T06:08:35.447Z,99.99
2018-12-01T06:09:15.906Z,99.99
2018-12-01T06:09:56.286Z,99.99
2018-12-01T06:10:36.649Z,99.99
2018-12-01T06:11:17.091Z,99.99
2018-12-01T06:11:57.466Z,99.99
2018-12-01T06:12:37.828Z,99.99
2018-12-01T06:13:18.351Z,99.99
2018-12-01T06:13:58.722Z,99.99
2018-12-01T06:14:39.121Z,99.99
2018-12-01T06:15:19.538Z,99.99
2018-12-01T06:15:59.870Z,99.99
2018-12-01T06:16:40.289Z,99.99
2018-12-01T06:17:20.603Z,99.99
2018-12-01T06:18:00.991Z,99.99
2018-12-01T06:18:41.424Z,99.99
2018-12-01T06:19:21.844Z,99.99
2018-12-01T06:20:02.149Z,99.99
2018-12-01T06:20:42.578Z,99.99
2018-12-01T06:21:22.922Z,99.99
2018-12-01T06:22:03.391Z,99.99
2018-12-01T06:22:43.765Z,99.99
2018-12-01T06:23:24.167Z,99.99
2018-12-01T06:24:04.576Z,99.99
2018-12-01T06:24:44.930Z,99.99
2018-12-01T06:25:25.394Z,99.99
2018-12-01T06:26:05.694Z,99.99
2018-12-01T06:26:46.112Z,99.99
2018-12-01T06:27:26.463Z,99.99
2018-12-01T06:28:06.883Z,99.99
2018-12-01T06:28:47.299Z,99.99
2018-12-01T06:29:27.701Z,99.99
2018-12-01T06:30:08.085Z,99.99
2018-12-01T06:30:48.591Z,99.99
2018-12-01T06:31:29.014Z,99.99
2018-12-01T06:32:09.418Z,99.99
2018-12-01T06:32:49.954Z,99.99
2018-12-01T06:33:30.186Z,99.99
2018-12-01T06:34:10.570Z,99.99
2018-12-01T06:34:50.882Z,99.99
2018-12-01T06:35:31.329Z,99.99
2018-12-01T06:36:11.772Z,99.99
2018-12-01T06:36:52.189Z,99.99
2018-12-01T06:37:32.566Z,99.99
2018-12-01T06:38:12.958Z,99.99
2018-12-01T06:38:53.291Z,99.99
2018-12-01T06:39:33.687Z,99.99
2018-12-01T06:40:14.103Z,99.99
2018-12-01T06:40:54.474Z,99.99
2018-12-01T06:41:34.860Z,99.99
2018-12-01T06:42:15.239Z,99.99
2018-12-01T06:42:55.668Z,99.99
2018-12-01T06:43:36.064Z,99.99
2018-12-01T06:44:16.398Z,99.99
2018-12-01T06:44:56.832Z,99.99
2018-12-01T06:45:37.250Z,99.99
2018-12-01T06:46:17.644Z,99.99
2018-12-01T06:46:58.136Z,99.99
2018-12-01T06:47:38.641Z,99.99
2018-12-01T06:48:18.926Z,99.99
2018-12-01T06:48:59.383Z,99.99
2018-12-01T06:49:39.736Z,99.99
2018-12-01T06:50:20.098Z,99.97
2018-12-01T06:51:00.514Z,99.69
2018-12-01T06:51:40.887Z,99.97
2018-12-01T06:52:21.298Z,99.69
2018-12-01T06:53:01.713Z,99.59
2018-12-01T06:53:42.102Z,99.02
2018-12-01T06:54:22.506Z,99.69
2018-12-01T06:55:02.919Z,98.83
2018-12-01T06:55:43.332Z,98.45
2018-12-01T06:56:23.681Z,98.74
2018-12-01T06:57:04.072Z,99.4
2018-12-01T06:57:44.537Z,99.5
2018-12-01T06:58:24.837Z,99.5
2018-12-01T06:59:05.259Z,99.5
2018-12-01T06:59:45.688Z,99.5
2018-12-01T07:00:26.111Z,98.74
2018-12-01T07:01:06.464Z,97.69
2018-12-01T07:01:46.795Z,97.41
2018-12-01T07:02:27.226Z,97.88
2018-12-01T07:03:07.531Z,97.41
2018-12-01T07:03:47.991Z,96.93
2018-12-01T07:04:28.386Z,96.26
2018-12-01T07:05:08.739Z,97.41
2018-12-01T07:05:49.184Z,97.88
2018-12-01T07:06:29.647Z,97.6
2018-12-01T07:07:09.905Z,97.41
2018-12-01T07:07:50.361Z,96.93
2018-12-01T07:08:30.731Z,97.97
2018-12-01T07:09:11.132Z,97.78
2018-12-01T07:09:51.500Z,97.88
2018-12-01T07:10:31.903Z,97.97
2018-12-01T07:11:12.270Z,97.69
2018-12-01T07:11:52.680Z,97.69
2018-12-01T07:12:33.067Z,98.07
2018-12-01T07:13:13.474Z,98.17
2018-12-01T07:13:53.832Z,98.74
2018-12-01T07:14:34.210Z,98.83
2018-12-01T07:15:14.594Z,99.5
2018-12-01T07:17:55.759Z,99.99
2018-12-01T07:20:47.512Z,99.99
2018-12-01T07:21:40.212Z,99.99
2018-12-01T07:22:32.682Z,99.99
2018-12-01T07:23:25.003Z,99.99
2018-12-01T07:24:17.214Z,99.99
2018-12-01T07:25:09.617Z,99.88
2018-12-01T07:26:02.037Z,99.92
2018-12-01T07:26:54.385Z,99.97
2018-12-01T07:27:47.220Z,99.99
2018-12-01T07:28:39.794Z,99.97
2018-12-01T07:29:32.277Z,99.4
2018-12-01T07:30:24.596Z,98.74
2018-12-01T07:31:17.071Z,98.64
2018-12-01T07:32:10.197Z,98.74
2018-12-01T07:33:03.084Z,98.64
2018-12-01T07:33:56.058Z,98.17
2018-12-01T07:34:48.602Z,97.93
2018-12-01T07:35:41.081Z,97.17
2018-12-01T07:36:34.108Z,97.55
2018-12-01T07:37:26.571Z,96.41
2018-12-01T07:38:19.016Z,96.12
2018-12-01T07:39:11.737Z,96.98
2018-12-01T07:40:03.711Z,96.41
2018-12-01T07:40:56.065Z,96.41
2018-12-01T07:43:57.261Z,95.94
2018-12-01T07:44:52.219Z,95.84
2018-12-01T07:45:52.508Z,96.03
2018-12-01T07:46:53.456Z,95.94
2018-12-01T07:47:56.033Z,96.41
2018-12-01T07:48:51.913Z,96.5
2018-12-01T07:49:48.362Z,96.6
2018-12-01T07:50:40.289Z,96.89
2018-12-01T07:51:33.563Z,96.69
2018-12-01T07:52:27.067Z,96.98
2018-12-01T07:53:20.414Z,96.22
2018-12-01T07:54:16.062Z,97.08
2018-12-01T07:55:09.424Z,98.12
2018-12-01T07:56:02.310Z,98.03
2018-12-01T07:56:55.854Z,97.93
2018-12-01T07:57:51.787Z,97.64
2018-12-01T07:58:49.674Z,97.93
2018-12-01T07:59:41.333Z,98.03
2018-12-01T08:00:36.179Z,97.45
2018-12-01T08:02:40.113Z,97.55
2018-12-01T08:03:33.601Z,97.08
2018-12-01T08:04:27.080Z,96.22
2018-12-01T08:05:19.456Z,97.17
2018-12-01T08:06:11.940Z,96.89
2018-12-01T08:07:04.503Z,96.31
2018-12-01T08:07:57.155Z,96.89
2018-12-01T08:08:56.568Z,97.36
2018-12-01T08:09:52.776Z,97.08
2018-12-01T08:10:46.728Z,97.45
2018-12-01T08:11:39.463Z,97.36
2018-12-01T08:12:37.099Z,97.36
2018-12-01T08:13:29.728Z,96.22
2018-12-01T08:14:22.506Z,96.98
2018-12-01T08:15:15.369Z,96.22
2018-12-01T08:16:07.514Z,97.36
2018-12-01T08:17:00.208Z,97.17
2018-12-01T08:18:04.040Z,96.36
2018-12-01T08:19:07.263Z,97.5
2018-12-01T08:20:01.526Z,97.08
2018-12-01T08:20:54.275Z,96.08
2018-12-01T08:21:46.943Z,97.69
2018-12-01T08:22:39.398Z,96.26
2018-12-01T08:23:33.675Z,96.74
2018-12-01T08:24:30.773Z,96.65
2018-12-01T08:25:22.493Z,96.55
2018-12-01T08:26:14.912Z,96.55
2018-12-01T08:27:09.272Z,97.13
2018-12-01T08:28:01.487Z,96.46
2018-12-01T08:28:53.478Z,96.08
2018-12-01T08:29:46.512Z,95.7
2018-12-01T08:30:38.887Z,96.46
2018-12-01T08:31:32.197Z,95.98
2018-12-01T08:32:23.849Z,96.17
2018-12-01T08:33:17.685Z,95.79
2018-12-01T08:34:10.948Z,95.89
2018-12-01T08:35:04.044Z,95.89
2018-12-01T08:35:57.989Z,95.98
2018-12-01T08:36:50.303Z,96.17
2018-12-01T08:37:43.397Z,95.98
2018-12-01T08:38:35.965Z,96.26
2018-12-01T08:39:30.369Z,95.7
2018-12-01T08:40:22.175Z,96.65
2018-12-01T08:41:15.142Z,96.94
2018-12-01T08:42:07.413Z,97.22
2018-12-01T08:43:00.630Z,97.41
2018-12-01T08:43:52.686Z,97.98
2018-12-01T08:44:44.470Z,97.69
2018-12-01T08:45:37.102Z,98.08
2018-12-01T08:46:29.122Z,97.88
2018-12-01T08:47:21.248Z,98.46
2018-12-01T08:48:14.080Z,98.08
2018-12-01T08:49:06.411Z,98.17
2018-12-01T08:49:58.986Z,98.46
2018-12-01T08:50:50.953Z,98.17
2018-12-01T08:51:43.185Z,97.98
2018-12-01T08:52:35.339Z,98.27
2018-12-01T08:53:27.880Z,97.6
2018-12-01T08:54:19.903Z,97.98
2018-12-01T08:55:12.212Z,97.6
2018-12-01T08:56:04.225Z,98.17
2018-12-01T08:56:57.764Z,98.08
2018-12-01T08:57:49.877Z,97.98
2018-12-01T08:58:43.595Z,98.08
2018-12-01T08:59:40.499Z,98.36
2018-12-01T09:00:33.191Z,97.98
2018-12-01T09:01:25.396Z,97.98
2018-12-01T09:02:18.795Z,97.98
2018-12-01T09:03:11.609Z,97.13
2018-12-01T09:04:03.910Z,96.94
2018-12-01T09:04:56.360Z,97.65
2018-12-01T09:05:48.003Z,97.08
2018-12-01T09:06:40.492Z,97.27
2018-12-01T09:07:32.876Z,97.27
2018-12-01T09:08:24.779Z,97.36
2018-12-01T09:09:18.891Z,96.41
2018-12-01T09:10:09.307Z,96.7
2018-12-01T09:10:49.476Z,96.6
2018-12-01T09:11:29.936Z,96.6
2018-12-01T09:12:10.292Z,96.51
2018-12-01T09:12:50.617Z,95.65
2018-12-01T09:13:31.061Z,96.12
2018-12-01T09:14:11.541Z,95.27
2018-12-01T09:14:51.996Z,95.46
2018-12-01T09:15:36.821Z,94.89
2018-12-01T09:16:13.274Z,94.89
2018-12-01T09:16:53.772Z,94.89
2018-12-01T09:17:34.095Z,94.89
2018-12-01T09:18:14.512Z,95.27
2018-12-01T09:18:54.947Z,95.08
2018-12-01T09:19:35.315Z,95.27
2018-12-01T09:20:15.626Z,94.89
2018-12-01T09:20:56.063Z,95.27
2018-12-01T09:21:36.460Z,95.46
2018-12-01T09:22:16.884Z,95.94
2018-12-01T09:22:57.231Z,95.08
2018-12-01T09:23:37.625Z,95.46
2018-12-01T09:24:18.028Z,95.65
2018-12-01T09:24:58.432Z,95.08
2018-12-01T09:25:38.832Z,95.27
2018-12-01T09:26:19.196Z,95.27
2018-12-01T09:26:59.629Z,95.27
2018-12-01T09:27:40.281Z,95.08
2018-12-01T09:28:20.848Z,96.12
2018-12-01T09:29:01.249Z,96.12
2018-12-01T09:29:41.723Z,95.46
2018-12-01T09:30:22.096Z,95.75
2018-12-01T09:31:02.619Z,95.08
2018-12-01T09:31:43.000Z,95.12
2018-12-01T09:32:24.418Z,94.03
2018-12-01T09:33:04.017Z,94.08
2018-12-01T09:33:44.507Z,94.65
2018-12-01T09:34:24.826Z,94.37
2018-12-01T09:35:05.210Z,93.79
2018-12-01T09:35:45.593Z,94.27
2018-12-01T09:36:26.037Z,93.6
2018-12-01T09:37:06.368Z,93.51
2018-12-01T09:37:46.825Z,91.74
2018-12-01T09:38:27.205Z,91.46
2018-12-01T09:39:07.606Z,90.6
2018-12-01T09:39:48.072Z,89.75
2018-12-01T09:40:28.847Z,89.22
2018-12-01T09:41:09.283Z,88.55
2018-12-01T09:41:49.684Z,88.17
2018-12-01T09:42:30.033Z,87.5
2018-12-01T09:43:10.489Z,87.31
2018-12-01T09:43:50.836Z,86.36
2018-12-01T09:44:31.292Z,86.74
2018-12-01T09:45:11.693Z,86.02
2018-12-01T09:45:52.083Z,85.64
2018-12-01T09:46:32.459Z,85.45
2018-12-01T09:47:12.852Z,85.73
2018-12-01T09:47:53.268Z,84.69
2018-12-01T09:48:33.604Z,84.97
2018-12-01T09:49:14.064Z,84.69
2018-12-01T09:49:56.089Z,85.31
2018-12-01T09:50:36.490Z,85.93
2018-12-01T09:51:16.887Z,86.26
2018-12-01T09:51:57.316Z,86.4
2018-12-01T09:52:37.693Z,86.02
2018-12-01T09:53:18.084Z,85.93
2018-12-01T09:53:58.469Z,86.11
2018-12-01T09:54:40.803Z,85.45
2018-12-01T09:55:20.884Z,85.54
2018-12-01T09:56:01.305Z,85.16
2018-12-01T09:56:41.811Z,84.78
2018-12-01T09:57:25.032Z,84.59
2018-12-01T09:58:06.099Z,84.49
2018-12-01T09:58:46.453Z,83.73
2018-12-01T09:59:26.935Z,82.59
2018-12-01T10:00:07.701Z,82.3
2018-12-01T10:00:48.016Z,83.11
2018-12-01T10:01:28.685Z,81.77
2018-12-01T10:02:09.018Z,81.48
2018-12-01T10:02:49.522Z,80.91
2018-12-01T10:03:29.847Z,80.66
2018-12-01T10:04:10.374Z,79.71
2018-12-01T10:04:51.826Z,79.61
2018-12-01T10:05:32.219Z,79.43
2018-12-01T10:06:12.609Z,79.33
2018-12-01T10:06:54.091Z,79.43
2018-12-01T10:07:34.449Z,79.52
2018-12-01T10:08:15.685Z,79.04
2018-12-01T10:08:57.157Z,78.37
2018-12-01T10:09:38.185Z,78.56
2018-12-01T10:10:18.577Z,78.03
2018-12-01T10:10:59.033Z,77.51
2018-12-01T10:11:43.136Z,78.28
2018-12-01T10:12:25.285Z,78.28
2018-12-01T10:13:05.699Z,78.56
2018-12-01T10:13:46.000Z,78.28
2018-12-01T10:14:27.163Z,78.18
2018-12-01T10:15:07.573Z,79.14
2018-12-01T10:15:51.803Z,78.94
2018-12-01T10:16:32.254Z,79.08
2018-12-01T10:17:12.619Z,77.94
2018-12-01T10:17:53.065Z,76.88
2018-12-01T10:18:33.604Z,75.74
2018-12-01T10:19:15.959Z,75.93
2018-12-01T10:19:58.293Z,76.69
2018-12-01T10:20:39.676Z,76.21
2018-12-01T10:21:20.190Z,75.64
2018-12-01T10:22:00.572Z,76.4
2018-12-01T10:22:41.023Z,77.03
2018-12-01T10:23:21.457Z,76.56
2018-12-01T10:24:01.847Z,77.99
2018-12-01T10:24:42.231Z,78.81